sensor_id;sensor_type;location;lat;lon;timestamp;temperature;humidity
7034;DHT22;3558;53.176;10.412;2024-02-16T00:00:06;16.60;92.60
7034;DHT22;3558;53.176;10.412;2024-02-16T00:02:32;16.70;92.60
7034;DHT22;3558;53.176;10.412;2024-02-16T00:04:58;16.60;92.60
7034;DHT22;3558;53.176;10.412;2024-02-16T00:07:24;16.70;92.60
7034;DHT22;3558;53.176;10.412;2024-02-16T00:09:50;16.60;92.60
7034;DHT22;3558;53.176;10.412;2024-02-16T00:12:15;16.60;92.60
7034;DHT22;3558;53.176;10.412;2024-02-16T00:14:42;16.60;92.60
7034;DHT22;3558;53.176;10.412;2024-02-16T00:17:07;16.60;92.60
7034;DHT22;3558;53.176;10.412;2024-02-16T00:19:35;16.50;92.50
7034;DHT22;3558;53.176;10.412;2024-02-16T00:22:01;16.50;92.70
7034;DHT22;3558;53.176;10.412;2024-02-16T00:24:26;16.50;92.50
7034;DHT22;3558;53.176;10.412;2024-02-16T00:26:52;16.50;92.50
7034;DHT22;3558;53.176;10.412;2024-02-16T00:29:17;16.50;92.50
7034;DHT22;3558;53.176;10.412;2024-02-16T00:31:44;16.50;92.50
7034;DHT22;3558;53.176;10.412;2024-02-16T00:34:10;16.50;92.50
7034;DHT22;3558;53.176;10.412;2024-02-16T00:36:35;16.50;92.50
7034;DHT22;3558;53.176;10.412;2024-02-16T00:39:01;16.50;92.50
7034;DHT22;3558;53.176;10.412;2024-02-16T00:41:28;16.40;92.50
7034;DHT22;3558;53.176;10.412;2024-02-16T00:43:54;16.50;92.50
7034;DHT22;3558;53.176;10.412;2024-02-16T00:46:21;16.50;92.50
7034;DHT22;3558;53.176;10.412;2024-02-16T00:48:49;16.40;92.50
7034;DHT22;3558;53.176;10.412;2024-02-16T00:51:14;16.40;92.50
7034;DHT22;3558;53.176;10.412;2024-02-16T00:53:40;16.40;92.50
7034;DHT22;3558;53.176;10.412;2024-02-16T00:56:05;16.40;92.50
7034;DHT22;3558;53.176;10.412;2024-02-16T00:58:32;16.40;92.50
7034;DHT22;3558;53.176;10.412;2024-02-16T01:00:58;16.40;92.50
7034;DHT22;3558;53.176;10.412;2024-02-16T01:03:24;16.40;92.50
7034;DHT22;3558;53.176;10.412;2024-02-16T01:05:52;16.40;92.50
7034;DHT22;3558;53.176;10.412;2024-02-16T01:08:17;16.40;92.50
7034;DHT22;3558;53.176;10.412;2024-02-16T01:10:43;16.40;92.50
7034;DHT22;3558;53.176;10.412;2024-02-16T01:13:08;16.40;92.50
7034;DHT22;3558;53.176;10.412;2024-02-16T01:15:34;16.30;92.40
7034;DHT22;3558;53.176;10.412;2024-02-16T01:17:59;16.30;92.50
7034;DHT22;3558;53.176;10.412;2024-02-16T01:20:25;16.30;92.40
7034;DHT22;3558;53.176;10.412;2024-02-16T01:22:51;16.30;92.40
7034;DHT22;3558;53.176;10.412;2024-02-16T01:25:17;16.30;92.40
7034;DHT22;3558;53.176;10.412;2024-02-16T01:27:43;16.30;92.40
7034;DHT22;3558;53.176;10.412;2024-02-16T01:30:09;16.30;92.40
7034;DHT22;3558;53.176;10.412;2024-02-16T01:32:35;16.30;92.40
7034;DHT22;3558;53.176;10.412;2024-02-16T01:35:00;16.30;92.40
7034;DHT22;3558;53.176;10.412;2024-02-16T01:37:26;16.30;92.40
7034;DHT22;3558;53.176;10.412;2024-02-16T01:39:51;16.20;92.40
7034;DHT22;3558;53.176;10.412;2024-02-16T01:42:17;16.20;92.40
7034;DHT22;3558;53.176;10.412;2024-02-16T01:44:42;16.30;92.40
7034;DHT22;3558;53.176;10.412;2024-02-16T01:47:08;16.20;92.40
7034;DHT22;3558;53.176;10.412;2024-02-16T01:49:34;16.20;92.40
7034;DHT22;3558;53.176;10.412;2024-02-16T01:52:00;16.20;92.30
7034;DHT22;3558;53.176;10.412;2024-02-16T01:54:25;16.20;92.30
7034;DHT22;3558;53.176;10.412;2024-02-16T01:56:51;16.20;92.30
7034;DHT22;3558;53.176;10.412;2024-02-16T01:59:17;16.10;92.30
7034;DHT22;3558;53.176;10.412;2024-02-16T02:01:42;16.10;92.40
7034;DHT22;3558;53.176;10.412;2024-02-16T02:04:08;16.10;92.30
7034;DHT22;3558;53.176;10.412;2024-02-16T02:06:34;16.10;92.30
7034;DHT22;3558;53.176;10.412;2024-02-16T02:08:59;16.20;92.30
7034;DHT22;3558;53.176;10.412;2024-02-16T02:11:25;16.10;92.30
7034;DHT22;3558;53.176;10.412;2024-02-16T02:13:50;16.10;92.30
7034;DHT22;3558;53.176;10.412;2024-02-16T02:16:16;16.10;92.30
7034;DHT22;3558;53.176;10.412;2024-02-16T02:18:43;16.10;92.30
7034;DHT22;3558;53.176;10.412;2024-02-16T02:21:09;16.10;92.20
7034;DHT22;3558;53.176;10.412;2024-02-16T02:23:34;16.00;92.20
7034;DHT22;3558;53.176;10.412;2024-02-16T02:26:01;16.10;92.20
7034;DHT22;3558;53.176;10.412;2024-02-16T02:28:26;16.00;92.20
7034;DHT22;3558;53.176;10.412;2024-02-16T03:45:57;15.80;92.00
7034;DHT22;3558;53.176;10.412;2024-02-16T03:48:23;15.80;92.00
7034;DHT22;3558;53.176;10.412;2024-02-16T03:50:48;15.80;92.10
7034;DHT22;3558;53.176;10.412;2024-02-16T03:53:14;15.80;92.00
7034;DHT22;3558;53.176;10.412;2024-02-16T03:55:39;15.80;92.00
7034;DHT22;3558;53.176;10.412;2024-02-16T03:58:04;15.80;92.10
7034;DHT22;3558;53.176;10.412;2024-02-16T04:00:30;15.80;92.10
7034;DHT22;3558;53.176;10.412;2024-02-16T04:02:57;15.80;92.10
7034;DHT22;3558;53.176;10.412;2024-02-16T04:05:23;15.80;92.10
7034;DHT22;3558;53.176;10.412;2024-02-16T04:07:48;15.80;92.10
7034;DHT22;3558;53.176;10.412;2024-02-16T04:10:14;15.70;92.00
7034;DHT22;3558;53.176;10.412;2024-02-16T04:12:40;15.70;92.00
7034;DHT22;3558;53.176;10.412;2024-02-16T04:15:05;15.80;92.10
7034;DHT22;3558;53.176;10.412;2024-02-16T04:17:31;15.70;92.10
7034;DHT22;3558;53.176;10.412;2024-02-16T04:19:57;15.70;92.10
7034;DHT22;3558;53.176;10.412;2024-02-16T04:22:22;15.70;92.00
7034;DHT22;3558;53.176;10.412;2024-02-16T04:24:48;15.70;92.00
7034;DHT22;3558;53.176;10.412;2024-02-16T04:27:13;15.70;92.00
7034;DHT22;3558;53.176;10.412;2024-02-16T04:29:39;15.70;92.00
7034;DHT22;3558;53.176;10.412;2024-02-16T04:32:04;15.70;92.00
7034;DHT22;3558;53.176;10.412;2024-02-16T04:34:30;15.70;92.00
7034;DHT22;3558;53.176;10.412;2024-02-16T04:36:55;15.70;92.00
7034;DHT22;3558;53.176;10.412;2024-02-16T04:39:20;15.70;92.00
7034;DHT22;3558;53.176;10.412;2024-02-16T04:41:46;15.70;92.00
7034;DHT22;3558;53.176;10.412;2024-02-16T04:44:11;15.70;92.00
7034;DHT22;3558;53.176;10.412;2024-02-16T04:46:38;15.70;92.00
7034;DHT22;3558;53.176;10.412;2024-02-16T04:49:03;15.70;92.00
7034;DHT22;3558;53.176;10.412;2024-02-16T04:51:29;15.70;92.00
7034;DHT22;3558;53.176;10.412;2024-02-16T04:53:54;15.70;92.00
7034;DHT22;3558;53.176;10.412;2024-02-16T04:56:19;15.60;92.00
7034;DHT22;3558;53.176;10.412;2024-02-16T04:58:45;15.70;92.00
7034;DHT22;3558;53.176;10.412;2024-02-16T05:01:13;15.70;92.00
7034;DHT22;3558;53.176;10.412;2024-02-16T05:03:38;15.60;92.00
7034;DHT22;3558;53.176;10.412;2024-02-16T05:06:06;15.60;92.00
7034;DHT22;3558;53.176;10.412;2024-02-16T05:08:32;15.70;92.00
7034;DHT22;3558;53.176;10.412;2024-02-16T05:10:57;15.70;92.00
7034;DHT22;3558;53.176;10.412;2024-02-16T05:13:22;15.60;92.00
7034;DHT22;3558;53.176;10.412;2024-02-16T05:15:49;15.60;92.00
7034;DHT22;3558;53.176;10.412;2024-02-16T05:18:15;15.60;92.00
7034;DHT22;3558;53.176;10.412;2024-02-16T05:20:40;15.60;91.90
7034;DHT22;3558;53.176;10.412;2024-02-16T05:23:06;15.60;91.90
7034;DHT22;3558;53.176;10.412;2024-02-16T05:25:31;15.60;92.00
7034;DHT22;3558;53.176;10.412;2024-02-16T05:27:57;15.60;92.00
7034;DHT22;3558;53.176;10.412;2024-02-16T05:30:22;15.60;92.00
7034;DHT22;3558;53.176;10.412;2024-02-16T05:32:48;15.60;92.10
7034;DHT22;3558;53.176;10.412;2024-02-16T05:35:14;15.60;92.00
7034;DHT22;3558;53.176;10.412;2024-02-16T05:37:43;15.60;92.00
7034;DHT22;3558;53.176;10.412;2024-02-16T05:40:17;15.60;92.00
7034;DHT22;3558;53.176;10.412;2024-02-16T05:42:56;15.60;92.00
7034;DHT22;3558;53.176;10.412;2024-02-16T05:45:23;15.60;92.00
7034;DHT22;3558;53.176;10.412;2024-02-16T05:47:49;15.60;92.00
7034;DHT22;3558;53.176;10.412;2024-02-16T05:50:15;15.60;92.00
7034;DHT22;3558;53.176;10.412;2024-02-16T05:52:41;15.60;91.90
7034;DHT22;3558;53.176;10.412;2024-02-16T05:55:08;15.60;92.00
7034;DHT22;3558;53.176;10.412;2024-02-16T05:57:34;15.60;92.00
7034;DHT22;3558;53.176;10.412;2024-02-16T06:00:01;15.60;92.00
7034;DHT22;3558;53.176;10.412;2024-02-16T06:02:26;15.60;92.00
7034;DHT22;3558;53.176;10.412;2024-02-16T06:04:53;15.50;91.90
7034;DHT22;3558;53.176;10.412;2024-02-16T06:07:18;15.60;92.00
7034;DHT22;3558;53.176;10.412;2024-02-16T06:09:44;15.50;91.90
7034;DHT22;3558;53.176;10.412;2024-02-16T06:12:09;15.60;92.20
7034;DHT22;3558;53.176;10.412;2024-02-16T06:14:35;15.60;92.00
7034;DHT22;3558;53.176;10.412;2024-02-16T06:17:02;15.50;91.90
7034;DHT22;3558;53.176;10.412;2024-02-16T06:19:28;15.60;92.00
7034;DHT22;3558;53.176;10.412;2024-02-16T06:21:54;15.50;91.90
7034;DHT22;3558;53.176;10.412;2024-02-16T06:24:23;15.50;91.90
7034;DHT22;3558;53.176;10.412;2024-02-16T06:26:49;15.50;91.90
7034;DHT22;3558;53.176;10.412;2024-02-16T06:29:16;15.50;91.90
7034;DHT22;3558;53.176;10.412;2024-02-16T06:31:42;15.50;91.90
7034;DHT22;3558;53.176;10.412;2024-02-16T06:34:07;15.60;91.90
7034;DHT22;3558;53.176;10.412;2024-02-16T06:36:33;15.50;91.90
7034;DHT22;3558;53.176;10.412;2024-02-16T06:38:59;15.50;91.90
7034;DHT22;3558;53.176;10.412;2024-02-16T06:41:25;15.50;91.90
7034;DHT22;3558;53.176;10.412;2024-02-16T06:43:50;15.50;91.90
7034;DHT22;3558;53.176;10.412;2024-02-16T06:46:15;15.50;91.90
7034;DHT22;3558;53.176;10.412;2024-02-16T06:48:41;15.50;91.90
7034;DHT22;3558;53.176;10.412;2024-02-16T06:51:07;15.50;91.90
7034;DHT22;3558;53.176;10.412;2024-02-16T06:53:33;15.50;91.90
7034;DHT22;3558;53.176;10.412;2024-02-16T06:55:58;15.50;91.90
7034;DHT22;3558;53.176;10.412;2024-02-16T06:58:24;15.50;91.90
7034;DHT22;3558;53.176;10.412;2024-02-16T07:00:49;15.50;91.90
7034;DHT22;3558;53.176;10.412;2024-02-16T07:03:15;15.40;91.90
7034;DHT22;3558;53.176;10.412;2024-02-16T07:05:40;15.50;91.90
7034;DHT22;3558;53.176;10.412;2024-02-16T07:08:06;15.50;91.90
7034;DHT22;3558;53.176;10.412;2024-02-16T07:10:33;15.40;91.90
7034;DHT22;3558;53.176;10.412;2024-02-16T07:12:58;15.50;91.90
7034;DHT22;3558;53.176;10.412;2024-02-16T07:15:24;15.40;91.90
7034;DHT22;3558;53.176;10.412;2024-02-16T07:17:51;15.40;91.90
7034;DHT22;3558;53.176;10.412;2024-02-16T07:20:17;15.40;91.90
7034;DHT22;3558;53.176;10.412;2024-02-16T07:22:43;15.40;91.90
7034;DHT22;3558;53.176;10.412;2024-02-16T07:25:11;15.40;91.90
7034;DHT22;3558;53.176;10.412;2024-02-16T07:27:37;15.40;91.90
7034;DHT22;3558;53.176;10.412;2024-02-16T07:30:03;15.40;91.90
7034;DHT22;3558;53.176;10.412;2024-02-16T07:32:29;15.40;91.90
7034;DHT22;3558;53.176;10.412;2024-02-16T07:34:55;15.40;91.90
7034;DHT22;3558;53.176;10.412;2024-02-16T07:37:20;15.40;91.90
7034;DHT22;3558;53.176;10.412;2024-02-16T07:39:46;15.40;91.90
7034;DHT22;3558;53.176;10.412;2024-02-16T07:42:11;15.40;91.90
7034;DHT22;3558;53.176;10.412;2024-02-16T07:44:38;15.40;91.90
7034;DHT22;3558;53.176;10.412;2024-02-16T07:47:04;15.40;91.90
7034;DHT22;3558;53.176;10.412;2024-02-16T07:49:30;15.40;92.10
7034;DHT22;3558;53.176;10.412;2024-02-16T07:51:55;15.50;91.90
7034;DHT22;3558;53.176;10.412;2024-02-16T07:54:21;15.40;91.90
7034;DHT22;3558;53.176;10.412;2024-02-16T07:56:46;15.40;91.90
7034;DHT22;3558;53.176;10.412;2024-02-16T07:59:12;15.40;91.90
7034;DHT22;3558;53.176;10.412;2024-02-16T08:01:37;15.40;91.90
7034;DHT22;3558;53.176;10.412;2024-02-16T08:04:04;15.40;91.90
7034;DHT22;3558;53.176;10.412;2024-02-16T08:06:29;15.40;91.90
7034;DHT22;3558;53.176;10.412;2024-02-16T08:08:55;15.40;92.00
7034;DHT22;3558;53.176;10.412;2024-02-16T08:11:20;15.40;92.00
7034;DHT22;3558;53.176;10.412;2024-02-16T08:13:47;15.40;92.00
7034;DHT22;3558;53.176;10.412;2024-02-16T08:16:12;15.40;92.00
7034;DHT22;3558;53.176;10.412;2024-02-16T08:18:38;15.40;92.00
7034;DHT22;3558;53.176;10.412;2024-02-16T08:21:04;15.40;92.10
7034;DHT22;3558;53.176;10.412;2024-02-16T08:23:29;15.40;92.10
7034;DHT22;3558;53.176;10.412;2024-02-16T08:25:55;15.40;92.10
7034;DHT22;3558;53.176;10.412;2024-02-16T08:28:22;15.40;92.10
7034;DHT22;3558;53.176;10.412;2024-02-16T08:30:48;15.40;92.10
7034;DHT22;3558;53.176;10.412;2024-02-16T08:33:13;15.40;92.20
7034;DHT22;3558;53.176;10.412;2024-02-16T08:35:39;15.50;92.20
7034;DHT22;3558;53.176;10.412;2024-02-16T08:38:04;15.50;92.20
7034;DHT22;3558;53.176;10.412;2024-02-16T08:40:30;15.50;92.20
7034;DHT22;3558;53.176;10.412;2024-02-16T08:42:55;15.50;92.20
7034;DHT22;3558;53.176;10.412;2024-02-16T08:45:21;15.50;92.20
7034;DHT22;3558;53.176;10.412;2024-02-16T08:47:46;15.60;92.20
7034;DHT22;3558;53.176;10.412;2024-02-16T08:50:12;15.60;92.20
7034;DHT22;3558;53.176;10.412;2024-02-16T08:52:38;15.60;92.20
7034;DHT22;3558;53.176;10.412;2024-02-16T08:55:04;15.70;92.30
7034;DHT22;3558;53.176;10.412;2024-02-16T08:57:31;15.70;92.20
7034;DHT22;3558;53.176;10.412;2024-02-16T08:59:57;15.80;92.30
7034;DHT22;3558;53.176;10.412;2024-02-16T09:02:22;15.80;92.30
7034;DHT22;3558;53.176;10.412;2024-02-16T09:04:48;15.80;92.30
7034;DHT22;3558;53.176;10.412;2024-02-16T09:07:13;15.80;92.30
7034;DHT22;3558;53.176;10.412;2024-02-16T09:09:39;15.80;92.30
7034;DHT22;3558;53.176;10.412;2024-02-16T09:12:05;15.90;92.30
7034;DHT22;3558;53.176;10.412;2024-02-16T09:14:30;15.90;92.30
7034;DHT22;3558;53.176;10.412;2024-02-16T09:16:57;15.90;92.30
7034;DHT22;3558;53.176;10.412;2024-02-16T09:19:22;16.00;92.30
7034;DHT22;3558;53.176;10.412;2024-02-16T09:21:49;16.00;92.30
7034;DHT22;3558;53.176;10.412;2024-02-16T09:24:16;16.00;92.30
7034;DHT22;3558;53.176;10.412;2024-02-16T09:26:44;16.10;92.30
7034;DHT22;3558;53.176;10.412;2024-02-16T09:29:14;16.10;92.30
7034;DHT22;3558;53.176;10.412;2024-02-16T09:31:43;16.20;92.30
7034;DHT22;3558;53.176;10.412;2024-02-16T09:34:08;16.20;92.30
7034;DHT22;3558;53.176;10.412;2024-02-16T09:36:34;16.20;92.20
7034;DHT22;3558;53.176;10.412;2024-02-16T09:39:01;16.30;92.20
7034;DHT22;3558;53.176;10.412;2024-02-16T09:41:27;16.30;92.20
7034;DHT22;3558;53.176;10.412;2024-02-16T09:43:54;16.40;92.20
7034;DHT22;3558;53.176;10.412;2024-02-16T09:46:21;16.40;92.10
7034;DHT22;3558;53.176;10.412;2024-02-16T09:48:48;16.50;92.10
7034;DHT22;3558;53.176;10.412;2024-02-16T09:51:17;16.50;92.10
7034;DHT22;3558;53.176;10.412;2024-02-16T09:53:44;16.50;92.10
7034;DHT22;3558;53.176;10.412;2024-02-16T09:56:13;16.50;92.10
7034;DHT22;3558;53.176;10.412;2024-02-16T09:58:38;16.60;92.10
7034;DHT22;3558;53.176;10.412;2024-02-16T10:01:04;16.60;92.00
7034;DHT22;3558;53.176;10.412;2024-02-16T10:03:30;16.60;92.00
7034;DHT22;3558;53.176;10.412;2024-02-16T10:06:09;16.70;91.90
7034;DHT22;3558;53.176;10.412;2024-02-16T10:08:53;16.70;91.90
7034;DHT22;3558;53.176;10.412;2024-02-16T10:11:21;16.70;91.90
7034;DHT22;3558;53.176;10.412;2024-02-16T10:14:02;16.80;91.90
7034;DHT22;3558;53.176;10.412;2024-02-16T10:16:28;16.80;91.80
7034;DHT22;3558;53.176;10.412;2024-02-16T10:19:04;16.80;91.80
7034;DHT22;3558;53.176;10.412;2024-02-16T10:21:30;16.80;91.80
7034;DHT22;3558;53.176;10.412;2024-02-16T10:24:06;16.90;91.80
7034;DHT22;3558;53.176;10.412;2024-02-16T10:26:37;16.90;91.80
7034;DHT22;3558;53.176;10.412;2024-02-16T10:29:10;17.00;91.80
7034;DHT22;3558;53.176;10.412;2024-02-16T10:31:38;17.00;91.80
7034;DHT22;3558;53.176;10.412;2024-02-16T10:34:05;17.00;91.80
7034;DHT22;3558;53.176;10.412;2024-02-16T10:36:38;17.00;91.70
7034;DHT22;3558;53.176;10.412;2024-02-16T10:39:05;17.10;91.70
7034;DHT22;3558;53.176;10.412;2024-02-16T10:41:35;17.10;91.70
7034;DHT22;3558;53.176;10.412;2024-02-16T10:44:02;17.20;91.70
7034;DHT22;3558;53.176;10.412;2024-02-16T10:46:29;17.10;91.70
7034;DHT22;3558;53.176;10.412;2024-02-16T10:48:54;17.20;91.80
7034;DHT22;3558;53.176;10.412;2024-02-16T10:51:24;17.20;91.90
7034;DHT22;3558;53.176;10.412;2024-02-16T10:53:52;17.20;92.00
7034;DHT22;3558;53.176;10.412;2024-02-16T10:56:27;17.30;92.10
7034;DHT22;3558;53.176;10.412;2024-02-16T10:58:53;17.30;92.20
7034;DHT22;3558;53.176;10.412;2024-02-16T11:01:19;17.40;92.40
7034;DHT22;3558;53.176;10.412;2024-02-16T11:03:45;17.40;92.40
7034;DHT22;3558;53.176;10.412;2024-02-16T11:06:17;17.50;92.50
7034;DHT22;3558;53.176;10.412;2024-02-16T11:08:43;17.50;92.60
7034;DHT22;3558;53.176;10.412;2024-02-16T11:11:08;17.60;92.80
7034;DHT22;3558;53.176;10.412;2024-02-16T11:13:36;17.60;92.80
7034;DHT22;3558;53.176;10.412;2024-02-16T11:16:07;17.70;92.90
7034;DHT22;3558;53.176;10.412;2024-02-16T11:18:37;17.70;92.80
7034;DHT22;3558;53.176;10.412;2024-02-16T11:21:03;17.80;92.70
7034;DHT22;3558;53.176;10.412;2024-02-16T11:23:30;17.80;92.70
7034;DHT22;3558;53.176;10.412;2024-02-16T11:26:03;17.80;92.80
7034;DHT22;3558;53.176;10.412;2024-02-16T11:28:31;17.90;93.10
7034;DHT22;3558;53.176;10.412;2024-02-16T11:30:58;17.90;93.20
7034;DHT22;3558;53.176;10.412;2024-02-16T11:33:23;18.00;93.30
7034;DHT22;3558;53.176;10.412;2024-02-16T11:35:55;18.00;93.20
7034;DHT22;3558;53.176;10.412;2024-02-16T11:38:21;18.00;93.10
7034;DHT22;3558;53.176;10.412;2024-02-16T11:43:21;18.10;92.70
7034;DHT22;3558;53.176;10.412;2024-02-16T11:45:47;18.10;92.60
7034;DHT22;3558;53.176;10.412;2024-02-16T11:48:12;18.20;92.60
7034;DHT22;3558;53.176;10.412;2024-02-16T11:50:38;18.20;92.40
7034;DHT22;3558;53.176;10.412;2024-02-16T11:53:03;18.20;92.50
7034;DHT22;3558;53.176;10.412;2024-02-16T11:55:29;18.20;92.50
7034;DHT22;3558;53.176;10.412;2024-02-16T11:57:55;18.30;92.50
7034;DHT22;3558;53.176;10.412;2024-02-16T12:00:22;18.30;92.50
7034;DHT22;3558;53.176;10.412;2024-02-16T12:02:47;18.30;92.20
7034;DHT22;3558;53.176;10.412;2024-02-16T12:05:16;18.40;92.00
7034;DHT22;3558;53.176;10.412;2024-02-16T12:07:41;18.40;92.20
7034;DHT22;3558;53.176;10.412;2024-02-16T12:10:08;18.40;92.60
7034;DHT22;3558;53.176;10.412;2024-02-16T12:12:34;18.40;92.60
7034;DHT22;3558;53.176;10.412;2024-02-16T12:15:00;18.50;92.40
7034;DHT22;3558;53.176;10.412;2024-02-16T12:17:25;18.50;92.40
7034;DHT22;3558;53.176;10.412;2024-02-16T12:19:51;18.50;92.20
7034;DHT22;3558;53.176;10.412;2024-02-16T12:22:18;18.60;92.30
7034;DHT22;3558;53.176;10.412;2024-02-16T12:24:48;18.60;92.20
7034;DHT22;3558;53.176;10.412;2024-02-16T12:27:14;18.70;92.00
7034;DHT22;3558;53.176;10.412;2024-02-16T12:29:40;18.70;92.00
7034;DHT22;3558;53.176;10.412;2024-02-16T12:32:06;18.60;91.70
7034;DHT22;3558;53.176;10.412;2024-02-16T12:34:31;18.80;92.40
7034;DHT22;3558;53.176;10.412;2024-02-16T12:36:57;18.80;92.80
7034;DHT22;3558;53.176;10.412;2024-02-16T12:39:22;18.80;93.10
7034;DHT22;3558;53.176;10.412;2024-02-16T12:41:48;18.90;93.60
7034;DHT22;3558;53.176;10.412;2024-02-16T12:44:15;18.90;93.50
7034;DHT22;3558;53.176;10.412;2024-02-16T12:46:40;19.00;93.70
7034;DHT22;3558;53.176;10.412;2024-02-16T12:49:07;18.90;93.80
7034;DHT22;3558;53.176;10.412;2024-02-16T12:51:32;19.00;93.90
7034;DHT22;3558;53.176;10.412;2024-02-16T12:53:58;19.00;94.00
7034;DHT22;3558;53.176;10.412;2024-02-16T12:56:25;19.10;94.10
7034;DHT22;3558;53.176;10.412;2024-02-16T12:58:51;19.10;94.10
7034;DHT22;3558;53.176;10.412;2024-02-16T13:01:16;19.10;94.20
7034;DHT22;3558;53.176;10.412;2024-02-16T13:03:45;19.20;94.20
7034;DHT22;3558;53.176;10.412;2024-02-16T13:06:10;19.20;94.30
7034;DHT22;3558;53.176;10.412;2024-02-16T13:08:37;19.20;94.30
7034;DHT22;3558;53.176;10.412;2024-02-16T13:11:03;19.20;94.30
7034;DHT22;3558;53.176;10.412;2024-02-16T13:13:28;19.20;94.30
7034;DHT22;3558;53.176;10.412;2024-02-16T13:15:54;19.30;94.40
7034;DHT22;3558;53.176;10.412;2024-02-16T13:18:21;19.30;94.40
7034;DHT22;3558;53.176;10.412;2024-02-16T13:20:47;19.30;94.40
7034;DHT22;3558;53.176;10.412;2024-02-16T13:23:12;19.30;94.40
7034;DHT22;3558;53.176;10.412;2024-02-16T13:25:38;19.40;94.40
7034;DHT22;3558;53.176;10.412;2024-02-16T13:28:04;19.40;94.50
7034;DHT22;3558;53.176;10.412;2024-02-16T13:30:30;19.40;94.50
7034;DHT22;3558;53.176;10.412;2024-02-16T13:32:56;19.40;94.50
7034;DHT22;3558;53.176;10.412;2024-02-16T13:35:22;19.40;94.40
7034;DHT22;3558;53.176;10.412;2024-02-16T13:37:48;19.40;94.40
7034;DHT22;3558;53.176;10.412;2024-02-16T13:40:14;19.40;94.40
7034;DHT22;3558;53.176;10.412;2024-02-16T13:42:40;19.40;94.30
7034;DHT22;3558;53.176;10.412;2024-02-16T13:45:07;19.40;94.30
7034;DHT22;3558;53.176;10.412;2024-02-16T13:47:32;19.40;93.60
7034;DHT22;3558;53.176;10.412;2024-02-16T13:49:58;19.40;92.90
7034;DHT22;3558;53.176;10.412;2024-02-16T13:52:25;19.40;92.70
7034;DHT22;3558;53.176;10.412;2024-02-16T13:54:51;19.40;92.40
7034;DHT22;3558;53.176;10.412;2024-02-16T13:57:16;19.40;92.20
7034;DHT22;3558;53.176;10.412;2024-02-16T13:59:42;19.40;92.10
7034;DHT22;3558;53.176;10.412;2024-02-16T14:02:08;19.40;92.20
7034;DHT22;3558;53.176;10.412;2024-02-16T14:04:34;19.40;92.20
7034;DHT22;3558;53.176;10.412;2024-02-16T14:07:00;19.40;92.30
7034;DHT22;3558;53.176;10.412;2024-02-16T14:09:25;19.40;92.30
7034;DHT22;3558;53.176;10.412;2024-02-16T14:11:52;19.40;92.40
7034;DHT22;3558;53.176;10.412;2024-02-16T14:14:19;19.40;92.40
7034;DHT22;3558;53.176;10.412;2024-02-16T14:16:45;19.40;92.50
7034;DHT22;3558;53.176;10.412;2024-02-16T14:19:10;19.40;92.30
7034;DHT22;3558;53.176;10.412;2024-02-16T14:21:36;19.40;92.50
7034;DHT22;3558;53.176;10.412;2024-02-16T14:24:01;19.40;92.40
7034;DHT22;3558;53.176;10.412;2024-02-16T14:26:27;19.40;92.20
7034;DHT22;3558;53.176;10.412;2024-02-16T14:28:53;19.30;92.10
7034;DHT22;3558;53.176;10.412;2024-02-16T14:31:20;19.30;92.20
7034;DHT22;3558;53.176;10.412;2024-02-16T14:33:47;19.30;92.00
7034;DHT22;3558;53.176;10.412;2024-02-16T14:36:12;19.30;92.20
7034;DHT22;3558;53.176;10.412;2024-02-16T14:38:38;19.30;92.20
7034;DHT22;3558;53.176;10.412;2024-02-16T14:41:03;19.30;92.20
7034;DHT22;3558;53.176;10.412;2024-02-16T14:43:29;19.30;92.20
7034;DHT22;3558;53.176;10.412;2024-02-16T14:45:57;19.30;92.30
7034;DHT22;3558;53.176;10.412;2024-02-16T14:48:23;19.30;92.40
7034;DHT22;3558;53.176;10.412;2024-02-16T14:50:51;19.30;92.40
7034;DHT22;3558;53.176;10.412;2024-02-16T14:53:18;19.30;92.40
7034;DHT22;3558;53.176;10.412;2024-02-16T14:55:44;19.30;92.40
7034;DHT22;3558;53.176;10.412;2024-02-16T14:58:09;19.30;92.40
7034;DHT22;3558;53.176;10.412;2024-02-16T15:00:35;19.30;92.50
7034;DHT22;3558;53.176;10.412;2024-02-16T15:03:01;19.30;92.50
7034;DHT22;3558;53.176;10.412;2024-02-16T15:05:26;19.20;92.50
7034;DHT22;3558;53.176;10.412;2024-02-16T15:07:52;19.20;92.40
7034;DHT22;3558;53.176;10.412;2024-02-16T15:10:17;19.20;92.40
7034;DHT22;3558;53.176;10.412;2024-02-16T15:12:43;19.20;92.40
7034;DHT22;3558;53.176;10.412;2024-02-16T15:15:08;19.20;92.30
7034;DHT22;3558;53.176;10.412;2024-02-16T15:17:34;19.20;92.30
7034;DHT22;3558;53.176;10.412;2024-02-16T15:20:00;19.20;92.30
7034;DHT22;3558;53.176;10.412;2024-02-16T15:22:28;19.20;92.30
7034;DHT22;3558;53.176;10.412;2024-02-16T15:24:54;19.10;92.20
7034;DHT22;3558;53.176;10.412;2024-02-16T15:27:19;19.10;92.20
7034;DHT22;3558;53.176;10.412;2024-02-16T15:29:45;19.10;92.20
7034;DHT22;3558;53.176;10.412;2024-02-16T15:32:11;19.10;92.20
7034;DHT22;3558;53.176;10.412;2024-02-16T15:34:36;19.00;92.20
7034;DHT22;3558;53.176;10.412;2024-02-16T15:37:01;19.00;92.20
7034;DHT22;3558;53.176;10.412;2024-02-16T15:39:29;19.10;92.20
7034;DHT22;3558;53.176;10.412;2024-02-16T15:41:54;19.00;92.10
7034;DHT22;3558;53.176;10.412;2024-02-16T15:44:20;19.00;92.10
7034;DHT22;3558;53.176;10.412;2024-02-16T15:46:46;18.90;92.10
7034;DHT22;3558;53.176;10.412;2024-02-16T15:49:11;19.00;92.10
7034;DHT22;3558;53.176;10.412;2024-02-16T15:51:37;19.00;92.10
7034;DHT22;3558;53.176;10.412;2024-02-16T15:54:02;18.90;92.10
7034;DHT22;3558;53.176;10.412;2024-02-16T15:56:28;18.90;92.20
7034;DHT22;3558;53.176;10.412;2024-02-16T15:58:54;18.90;92.20
7034;DHT22;3558;53.176;10.412;2024-02-16T16:01:28;18.90;92.20
7034;DHT22;3558;53.176;10.412;2024-02-16T16:03:54;18.90;92.20
7034;DHT22;3558;53.176;10.412;2024-02-16T16:06:20;18.90;92.20
7034;DHT22;3558;53.176;10.412;2024-02-16T16:08:45;18.90;92.20
7034;DHT22;3558;53.176;10.412;2024-02-16T16:11:11;18.80;92.20
7034;DHT22;3558;53.176;10.412;2024-02-16T16:13:37;18.80;92.20
7034;DHT22;3558;53.176;10.412;2024-02-16T16:16:03;18.80;92.30
7034;DHT22;3558;53.176;10.412;2024-02-16T16:18:29;18.80;92.30
7034;DHT22;3558;53.176;10.412;2024-02-16T16:21:01;18.80;92.30
7034;DHT22;3558;53.176;10.412;2024-02-16T16:23:28;18.80;92.40
7034;DHT22;3558;53.176;10.412;2024-02-16T16:25:55;18.80;92.40
7034;DHT22;3558;53.176;10.412;2024-02-16T16:28:20;18.80;92.40
7034;DHT22;3558;53.176;10.412;2024-02-16T16:30:47;18.80;92.40
7034;DHT22;3558;53.176;10.412;2024-02-16T16:33:12;18.80;92.30
7034;DHT22;3558;53.176;10.412;2024-02-16T16:35:38;18.80;92.30
7034;DHT22;3558;53.176;10.412;2024-02-16T16:38:03;18.80;92.30
7034;DHT22;3558;53.176;10.412;2024-02-16T16:40:31;18.80;92.40
7034;DHT22;3558;53.176;10.412;2024-02-16T16:42:57;18.80;92.30
7034;DHT22;3558;53.176;10.412;2024-02-16T16:45:22;18.70;92.60
7034;DHT22;3558;53.176;10.412;2024-02-16T16:47:49;18.80;92.40
7034;DHT22;3558;53.176;10.412;2024-02-16T16:50:18;18.70;92.30
7034;DHT22;3558;53.176;10.412;2024-02-16T16:52:46;18.70;92.40
7034;DHT22;3558;53.176;10.412;2024-02-16T16:55:11;18.70;92.40